createdAt,value
2022-09-18T00:01:39.199Z,100411.16
2022-09-18T00:04:41.716Z,100406.97
2022-09-18T00:07:45.542Z,100400.19
2022-09-18T00:10:48.046Z,100410.09
2022-09-18T00:13:51.365Z,100402.78
2022-09-18T00:16:54.092Z,100403.03
2022-09-18T00:19:56.583Z,100400.19
2022-09-18T00:23:00.419Z,100398.97
2022-09-18T00:26:03.296Z,100411.66
2022-09-18T00:29:07.252Z,100410.72
2022-09-18T00:32:09.853Z,100416.28
2022-09-18T00:35:12.396Z,100419.66
2022-09-18T00:38:16.227Z,100422.47
2022-09-18T00:41:23.765Z,100428.28
2022-09-18T00:44:38.796Z,100431.09
2022-09-18T00:47:44.909Z,100434.81
2022-09-18T00:50:47.478Z,100422.31
2022-09-18T00:53:56.834Z,100435.19
2022-09-18T00:57:02.982Z,100440.50
2022-09-18T01:00:10.693Z,100434.16
2022-09-18T01:03:13.181Z,100429.44
2022-09-18T01:06:21.960Z,100424.66
2022-09-18T01:09:33.042Z,100431.63
2022-09-18T01:12:45.872Z,100432.28
2022-09-18T01:15:52.440Z,100431.44
2022-09-18T01:19:02.251Z,100434.44
2022-09-18T01:22:19.053Z,100430.28
2022-09-18T01:25:34.090Z,100427.41
2022-09-18T01:28:40.744Z,100425.53
2022-09-18T01:31:48.025Z,100422.59
2022-09-18T01:34:59.270Z,100422.59
2022-09-18T01:38:07.657Z,100417.56
2022-09-18T01:41:15.511Z,100409.22
2022-09-18T01:44:23.376Z,100418.56
2022-09-18T01:47:34.013Z,100418.75
2022-09-18T01:50:41.800Z,100423.72
2022-09-18T01:53:49.146Z,100421.69
2022-09-18T01:56:55.314Z,100421.34
2022-09-18T02:00:03.218Z,100423.81
2022-09-18T02:03:10.710Z,100422.34
2022-09-18T02:06:17.232Z,100429.56
2022-09-18T02:09:19.828Z,100421.84
2022-09-18T02:12:25.764Z,100430.59
2022-09-18T02:15:33.267Z,100425.09
2022-09-18T02:18:41.257Z,100433.19
2022-09-18T02:21:46.599Z,100435.56
2022-09-18T02:24:51.781Z,100427.13
2022-09-18T02:27:56.022Z,100418.84
2022-09-18T02:30:59.893Z,100420.09
2022-09-18T02:34:02.937Z,100414.75
2022-09-18T02:37:23.519Z,100423.84
2022-09-18T02:40:35.211Z,100422.00
2022-09-18T02:43:47.152Z,100417.47
2022-09-18T02:47:00.520Z,100418.97
2022-09-18T02:50:14.713Z,100424.81
2022-09-18T02:53:24.424Z,100417.66
2022-09-18T02:56:35.408Z,100421.72
2022-09-18T02:59:40.920Z,100416.22
2022-09-18T03:02:44.914Z,100407.34
2022-09-18T03:05:47.454Z,100405.06
2022-09-18T03:08:50.010Z,100404.06
2022-09-18T03:11:53.862Z,100403.03
2022-09-18T03:14:56.330Z,100399.34
2022-09-18T03:18:00.259Z,100395.63
2022-09-18T03:21:02.725Z,100409.44
2022-09-18T03:24:05.537Z,100394.63
2022-09-18T03:27:08.070Z,100401.09
2022-09-18T03:30:11.493Z,100403.50
2022-09-18T03:33:15.322Z,100403.44
2022-09-18T03:36:17.844Z,100408.75
2022-09-18T03:39:20.350Z,100401.97
2022-09-18T03:42:22.861Z,100400.00
2022-09-18T03:45:25.333Z,100390.00
2022-09-18T03:48:29.168Z,100397.41
2022-09-18T03:51:31.778Z,100386.78
2022-09-18T03:54:34.300Z,100391.47
2022-09-18T03:57:36.765Z,100383.72
2022-09-18T04:00:39.306Z,100392.78
2022-09-18T04:03:43.682Z,100394.38
2022-09-18T04:06:46.180Z,100384.44
2022-09-18T04:09:48.632Z,100386.72
2022-09-18T04:12:51.142Z,100384.13
2022-09-18T04:15:53.877Z,100396.31
2022-09-18T04:18:58.044Z,100389.91
2022-09-18T04:22:00.518Z,100402.03
2022-09-18T04:25:03.351Z,100408.75
2022-09-18T04:28:05.878Z,100409.19
2022-09-18T04:31:09.718Z,100394.69
2022-09-18T04:34:13.556Z,100403.53
2022-09-18T04:37:16.045Z,100404.69
2022-09-18T04:40:18.855Z,100402.03
2022-09-18T04:43:21.385Z,100412.34
2022-09-18T04:46:23.880Z,100413.66
2022-09-18T04:49:27.726Z,100406.22
2022-09-18T04:52:30.290Z,100403.63
2022-09-18T04:55:32.826Z,100413.56
2022-09-18T04:58:35.308Z,100402.41
2022-09-18T05:01:37.867Z,100407.41
2022-09-18T05:04:41.714Z,100393.72
2022-09-18T05:07:44.423Z,100399.72
2022-09-18T05:10:46.939Z,100401.25
2022-09-18T05:13:49.682Z,100402.13
2022-09-18T05:16:52.173Z,100389.59
2022-09-18T05:19:55.981Z,100398.44
2022-09-18T05:22:58.538Z,100397.66
2022-09-18T05:26:01.047Z,100403.44
2022-09-18T05:29:03.534Z,100406.31
2022-09-18T05:32:07.043Z,100394.81
2022-09-18T05:35:10.935Z,100402.53
2022-09-18T05:38:13.542Z,100404.97
2022-09-18T05:41:16.040Z,100412.25
2022-09-18T05:44:18.762Z,100419.25
2022-09-18T05:47:21.224Z,100430.22
2022-09-18T05:50:25.862Z,100427.72
2022-09-18T05:53:28.366Z,100426.75
2022-09-18T05:56:30.835Z,100426.03
2022-09-18T05:59:33.313Z,100420.44
2022-09-18T06:02:35.894Z,100417.13
2022-09-18T06:05:40.994Z,100416.28
2022-09-18T06:08:43.490Z,100408.34
2022-09-18T06:11:45.991Z,100406.09
2022-09-18T06:14:48.482Z,100414.22
2022-09-18T06:17:52.858Z,100413.94
2022-09-18T06:20:58.256Z,100418.03
2022-09-18T06:24:00.979Z,100420.06
2022-09-18T06:27:03.478Z,100435.41
2022-09-18T06:30:06.998Z,100418.50
2022-09-18T06:33:11.332Z,100422.22
2022-09-18T06:36:16.224Z,100424.75
2022-09-18T06:39:18.724Z,100420.41
2022-09-18T06:42:21.202Z,100427.41
2022-09-18T06:45:24.021Z,100420.31
2022-09-18T06:48:29.159Z,100416.25
2022-09-18T06:51:33.027Z,100413.50
2022-09-18T06:54:35.515Z,100417.78
2022-09-18T06:57:38.001Z,100427.03
2022-09-18T07:00:40.539Z,100425.31
2022-09-18T07:03:43.081Z,100429.22
2022-09-18T07:06:47.420Z,100424.81
2022-09-18T07:09:50.152Z,100410.09
2022-09-18T07:12:56.792Z,100417.03
2022-09-18T07:15:59.386Z,100411.16
2022-09-18T07:19:02.070Z,100410.31
2022-09-18T07:22:06.106Z,100417.34
2022-09-18T07:25:10.487Z,100417.34
2022-09-18T07:28:13.078Z,100423.44
2022-09-18T07:31:15.677Z,100410.94
2022-09-18T07:34:18.495Z,100398.66
2022-09-18T07:37:22.322Z,100409.06
2022-09-18T07:40:24.877Z,100415.22
2022-09-18T07:43:27.532Z,100408.44
2022-09-18T07:46:30.313Z,100415.56
2022-09-18T07:49:32.977Z,100413.44
2022-09-18T07:52:36.830Z,100412.34
2022-09-18T07:55:39.471Z,100418.69
2022-09-18T07:58:42.062Z,100412.16
2022-09-18T08:01:44.668Z,100412.97
2022-09-18T08:04:47.262Z,100409.06
2022-09-18T08:07:51.082Z,100409.63
2022-09-18T08:10:56.200Z,100406.72
2022-09-18T08:13:59.001Z,100406.91
2022-09-18T08:17:01.476Z,100405.00
2022-09-18T08:20:04.269Z,100398.84
2022-09-18T08:23:09.678Z,100397.97
2022-09-18T08:26:12.297Z,100410.75
2022-09-18T08:29:19.258Z,100403.88
2022-09-18T08:32:21.882Z,100402.44
2022-09-18T08:35:24.362Z,100394.56
2022-09-18T08:38:28.176Z,100403.38
2022-09-18T08:41:44.543Z,100395.06
2022-09-18T08:44:50.348Z,100404.00
2022-09-18T08:47:58.635Z,100393.09
2022-09-18T08:51:05.685Z,100382.09
2022-09-18T08:54:20.651Z,100386.41
2022-09-18T08:57:27.448Z,100394.44
2022-09-18T09:00:35.403Z,100387.63
2022-09-18T09:03:51.146Z,100387.13
2022-09-18T09:07:05.676Z,100391.25
2022-09-18T09:10:30.543Z,100385.41
2022-09-18T09:14:10.356Z,100385.31
2022-09-18T09:17:18.314Z,100388.28
2022-09-18T09:20:24.418Z,100368.59
2022-09-18T09:23:40.449Z,100370.53
2022-09-18T09:26:44.285Z,100376.59
2022-09-18T09:29:48.441Z,100379.72
2022-09-18T09:32:55.299Z,100380.97
2022-09-18T09:36:02.942Z,100373.63
2022-09-18T09:39:13.251Z,100371.91
2022-09-18T09:42:22.695Z,100388.25
2022-09-18T09:45:29.181Z,100379.47
2022-09-18T09:48:39.459Z,100385.72
2022-09-18T09:51:52.313Z,100372.94
2022-09-18T09:54:57.987Z,100358.66
2022-09-18T09:58:14.133Z,100347.63
2022-09-18T10:01:23.290Z,100354.41
2022-09-18T10:04:35.497Z,100364.50
2022-09-18T10:07:43.400Z,100362.13
2022-09-18T10:10:52.291Z,100365.16
2022-09-18T10:14:00.618Z,100363.88
2022-09-18T10:17:05.082Z,100356.16
2022-09-18T10:20:15.098Z,100363.75
2022-09-18T10:23:25.673Z,100370.63
2022-09-18T10:26:34.700Z,100367.38
2022-09-18T10:29:38.837Z,100359.63
2022-09-18T10:32:42.375Z,100369.00
2022-09-18T10:35:45.840Z,100371.66
2022-09-18T10:38:48.381Z,100369.28
2022-09-18T10:41:50.910Z,100365.78
2022-09-18T10:45:01.689Z,100356.72
2022-09-18T10:48:07.957Z,100358.97
2022-09-18T10:51:18.546Z,100353.03
2022-09-18T10:54:23.031Z,100344.28
2022-09-18T10:57:29.258Z,100344.88
2022-09-18T11:00:45.005Z,100347.94
2022-09-18T11:03:49.636Z,100363.09
2022-09-18T11:06:52.470Z,100375.66
2022-09-18T11:09:55.495Z,100372.03
2022-09-18T11:12:59.543Z,100379.38
2022-09-18T11:16:05.380Z,100350.59
2022-09-18T11:19:15.589Z,100349.09
2022-09-18T11:22:34.407Z,100343.34
2022-09-18T11:25:36.895Z,100334.19
2022-09-18T11:28:40.569Z,100324.28
2022-09-18T11:31:47.909Z,100320.59
2022-09-18T11:34:53.257Z,100300.34
2022-09-18T11:37:59.329Z,100306.09
2022-09-18T11:41:02.896Z,100313.63
2022-09-18T11:44:12.607Z,100311.38
2022-09-18T11:47:33.334Z,100308.03
2022-09-18T11:50:37.771Z,100308.53
2022-09-18T11:53:43.717Z,100314.47
2022-09-18T11:56:50.663Z,100304.84
2022-09-18T11:59:58.462Z,100303.72
2022-09-18T12:03:14.137Z,100303.72
2022-09-18T12:06:24.830Z,100311.56
2022-09-18T12:09:36.280Z,100323.75
2022-09-18T12:12:44.084Z,100330.03
2022-09-18T12:15:53.711Z,100351.53
2022-09-18T12:19:02.724Z,100315.47
2022-09-18T12:22:12.234Z,100314.06
2022-09-18T12:25:16.735Z,100301.22
2022-09-18T12:28:28.785Z,100300.72
2022-09-18T12:31:42.260Z,100305.66
2022-09-18T12:34:56.956Z,100296.03
2022-09-18T12:38:10.533Z,100295.31
2022-09-18T12:41:33.375Z,100296.16
2022-09-18T12:44:49.792Z,100299.06
2022-09-18T12:48:06.660Z,100289.59
2022-09-18T12:51:38.861Z,100298.56
2022-09-18T12:55:13.853Z,100296.03
2022-09-18T12:58:36.418Z,100297.97
2022-09-18T13:01:45.314Z,100290.03
2022-09-18T13:04:51.142Z,100304.06
2022-09-18T13:08:02.834Z,100301.81
2022-09-18T13:11:17.184Z,100299.84
2022-09-18T13:14:26.245Z,100295.56
2022-09-18T13:17:36.081Z,100301.94
2022-09-18T13:20:42.678Z,100296.81
2022-09-18T13:23:48.499Z,100295.84
2022-09-18T13:26:52.850Z,100299.94
2022-09-18T13:29:58.934Z,100299.94
2022-09-18T13:33:02.825Z,100298.78
2022-09-18T13:36:05.745Z,100308.25
2022-09-18T13:39:18.456Z,100288.00
2022-09-18T13:42:33.845Z,100287.84
2022-09-18T13:45:39.677Z,100291.28
2022-09-18T13:48:46.512Z,100289.53
2022-09-18T13:51:49.226Z,100287.53
2022-09-18T13:55:03.227Z,100284.59
2022-09-18T13:58:35.646Z,100287.34
2022-09-18T14:02:00.636Z,100289.56
2022-09-18T14:05:31.646Z,100287.41
2022-09-18T14:08:38.206Z,100294.13
2022-09-18T14:11:42.099Z,100285.25
2022-09-18T14:14:56.984Z,100287.56
2022-09-18T14:18:07.831Z,100293.63
2022-09-18T14:21:20.637Z,100293.63
2022-09-18T14:24:38.730Z,100332.56
2022-09-18T14:27:50.670Z,100324.09
2022-09-18T14:31:13.963Z,100316.19
2022-09-18T14:34:23.090Z,100301.06
2022-09-18T14:37:28.165Z,100297.00
2022-09-18T14:40:31.950Z,100278.44
2022-09-18T14:43:38.419Z,100271.81
2022-09-18T14:46:53.208Z,100262.63
2022-09-18T14:49:55.741Z,100264.53
2022-09-18T14:52:59.915Z,100256.56
2022-09-18T14:56:08.025Z,100255.94
2022-09-18T14:59:18.686Z,100256.03
2022-09-18T15:02:25.701Z,100250.50
2022-09-18T15:05:29.272Z,100243.78
2022-09-18T15:08:31.825Z,100246.19
2022-09-18T15:11:52.261Z,100236.31
2022-09-18T15:14:58.979Z,100238.75
2022-09-18T15:18:02.313Z,100234.81
2022-09-18T15:21:05.305Z,100241.19
2022-09-18T15:24:16.265Z,100232.66
2022-09-18T15:27:19.845Z,100241.09
2022-09-18T15:30:25.761Z,100226.25
2022-09-18T15:33:28.951Z,100222.25
2022-09-18T15:36:34.513Z,100215.28
2022-09-18T15:39:41.203Z,100222.44
2022-09-18T15:42:57.865Z,100214.41
2022-09-18T15:46:04.628Z,100223.47
2022-09-18T15:49:28.945Z,100218.00
2022-09-18T15:52:38.813Z,100226.47
2022-09-18T15:55:53.903Z,100224.69
2022-09-18T15:58:58.960Z,100231.78
2022-09-18T16:02:08.020Z,100222.31
2022-09-18T16:05:13.001Z,100220.16
2022-09-18T16:08:20.268Z,100227.56
2022-09-18T16:11:49.872Z,100213.50
2022-09-18T16:15:01.925Z,100218.75
2022-09-18T16:18:24.193Z,100220.22
2022-09-18T16:21:30.209Z,100223.13
2022-09-18T16:24:32.817Z,100225.53
2022-09-18T16:27:35.412Z,100221.56
2022-09-18T16:30:38.115Z,100220.75
2022-09-18T16:33:51.949Z,100219.41
2022-09-18T16:36:55.424Z,100216.63
2022-09-18T16:39:57.956Z,100212.47
2022-09-18T16:43:00.438Z,100222.91
2022-09-18T16:46:02.951Z,100224.06
2022-09-18T16:49:07.108Z,100219.38
2022-09-18T16:52:10.429Z,100223.38
2022-09-18T16:55:13.020Z,100224.56
2022-09-18T16:58:17.778Z,100226.44
2022-09-18T17:01:23.082Z,100230.06
2022-09-18T17:04:27.311Z,100225.72
2022-09-18T17:07:30.335Z,100221.47
2022-09-18T17:10:33.690Z,100224.56
2022-09-18T17:13:36.202Z,100225.88
2022-09-18T17:16:44.707Z,100231.13
2022-09-18T17:19:48.968Z,100232.69
2022-09-18T17:22:51.690Z,100232.53
2022-09-18T17:26:03.627Z,100239.91
2022-09-18T17:29:07.013Z,100240.56
2022-09-18T17:32:09.504Z,100242.47
2022-09-18T17:35:13.349Z,100246.25
2022-09-18T17:38:15.909Z,100246.00
2022-09-18T17:41:19.876Z,100249.19
2022-09-18T17:44:24.037Z,100259.13
2022-09-18T17:47:26.534Z,100269.41
2022-09-18T17:50:30.352Z,100263.41
2022-09-18T17:53:34.378Z,100266.06
2022-09-18T17:56:37.448Z,100276.97
2022-09-18T17:59:41.057Z,100273.63
2022-09-18T18:02:43.557Z,100277.81
2022-09-18T18:05:52.941Z,100283.38
2022-09-18T18:08:56.056Z,100284.94
2022-09-18T18:11:58.868Z,100286.56
2022-09-18T18:15:01.330Z,100292.50
2022-09-18T18:18:03.817Z,100293.28
2022-09-18T18:21:08.526Z,100289.16
2022-09-18T18:24:14.880Z,100289.59
2022-09-18T18:27:20.477Z,100298.41
2022-09-18T18:30:24.035Z,100292.16
2022-09-18T18:33:28.024Z,100302.34
2022-09-18T18:36:33.631Z,100302.09
2022-09-18T18:39:36.135Z,100299.59
2022-09-18T18:42:38.597Z,100305.69
2022-09-18T18:45:52.252Z,100323.41
2022-09-18T18:49:02.786Z,100322.50
2022-09-18T18:52:07.317Z,100323.84
2022-09-18T18:55:10.064Z,100329.88
2022-09-18T18:58:13.045Z,100335.66
2022-09-18T19:01:17.242Z,100343.31
2022-09-18T19:04:19.905Z,100338.94
2022-09-18T19:07:23.819Z,100352.31
2022-09-18T19:10:27.003Z,100349.34
2022-09-18T19:13:30.227Z,100340.94
2022-09-18T19:16:32.979Z,100343.81
2022-09-18T19:19:35.485Z,100349.34
2022-09-18T19:22:39.323Z,100350.75
2022-09-18T19:25:41.791Z,100343.41
2022-09-18T19:28:44.282Z,100351.84
2022-09-18T19:31:47.976Z,100338.06
2022-09-18T19:34:50.574Z,100353.06
2022-09-18T19:37:54.534Z,100345.28
2022-09-18T19:40:57.028Z,100363.22
2022-09-18T19:44:02.277Z,100365.72
2022-09-18T19:47:08.171Z,100368.03
2022-09-18T19:50:19.950Z,100378.53
2022-09-18T19:53:24.020Z,100372.72
2022-09-18T19:56:42.154Z,100373.16
2022-09-18T19:59:46.870Z,100378.03
2022-09-18T20:02:49.684Z,100386.78
2022-09-18T20:05:52.202Z,100382.00
2022-09-18T20:08:56.741Z,100387.69
2022-09-18T20:11:59.223Z,100384.22
2022-09-18T20:15:02.448Z,100385.94
2022-09-18T20:18:07.269Z,100393.94
2022-09-18T20:21:12.301Z,100399.69
2022-09-18T20:24:16.132Z,100414.50
2022-09-18T20:27:20.237Z,100408.66
2022-09-18T20:30:22.869Z,100416.22
2022-09-18T20:33:25.441Z,100408.56
2022-09-18T20:36:29.342Z,100411.22
2022-09-18T20:39:33.322Z,100414.84
2022-09-18T20:42:36.070Z,100412.16
2022-09-18T20:45:39.358Z,100426.13
2022-09-18T20:48:45.435Z,100423.63
2022-09-18T20:51:47.942Z,100434.16
2022-09-18T20:54:52.746Z,100437.91
2022-09-18T20:57:57.355Z,100433.06
2022-09-18T21:01:08.217Z,100445.94
2022-09-18T21:04:17.302Z,100444.06
2022-09-18T21:07:21.293Z,100445.66
2022-09-18T21:10:25.121Z,100454.56
2022-09-18T21:13:27.601Z,100455.84
2022-09-18T21:16:33.595Z,100463.19
2022-09-18T21:19:38.378Z,100464.19
2022-09-18T21:22:54.902Z,100463.72
2022-09-18T21:25:58.740Z,100465.81
2022-09-18T21:29:02.793Z,100474.09
2022-09-18T21:32:06.121Z,100477.56
2022-09-18T21:35:09.330Z,100475.91
2022-09-18T21:38:12.951Z,100474.81
2022-09-18T21:41:18.101Z,100479.81
2022-09-18T21:44:26.886Z,100488.19
2022-09-18T21:47:29.439Z,100490.34
2022-09-18T21:50:31.929Z,100491.69
2022-09-18T21:53:35.485Z,100497.88
2022-09-18T21:56:39.319Z,100495.44
2022-09-18T21:59:41.780Z,100495.81
2022-09-18T22:02:44.289Z,100506.06
2022-09-18T22:05:47.007Z,100511.56
2022-09-18T22:08:50.831Z,100514.38
2022-09-18T22:11:55.614Z,100525.63
2022-09-18T22:14:58.254Z,100516.28
2022-09-18T22:18:00.812Z,100529.19
2022-09-18T22:21:03.284Z,100538.25
2022-09-18T22:24:08.887Z,100549.66
2022-09-18T22:27:12.981Z,100554.44
2022-09-18T22:30:15.655Z,100568.03
2022-09-18T22:33:18.128Z,100568.34
2022-09-18T22:36:22.753Z,100566.88
2022-09-18T22:39:25.248Z,100568.56
2022-09-18T22:42:30.258Z,100572.78
2022-09-18T22:45:32.725Z,100575.94
2022-09-18T22:48:36.220Z,100577.50
2022-09-18T22:51:40.748Z,100581.47
2022-09-18T22:54:43.287Z,100575.31
2022-09-18T22:57:47.114Z,100581.97
2022-09-18T23:00:49.617Z,100574.22
2022-09-18T23:03:55.649Z,100588.44
2022-09-18T23:06:59.075Z,100589.34
2022-09-18T23:10:01.584Z,100589.22
2022-09-18T23:13:05.617Z,100584.78
2022-09-18T23:16:11.157Z,100592.50
2022-09-18T23:19:16.048Z,100590.53
2022-09-18T23:22:18.549Z,100587.88
2022-09-18T23:25:21.046Z,100603.25
2022-09-18T23:28:24.901Z,100608.56
2022-09-18T23:31:29.219Z,100611.72
2022-09-18T23:34:33.641Z,100611.16
2022-09-18T23:37:36.136Z,100604.59
2022-09-18T23:40:38.917Z,100603.47
2022-09-18T23:43:47.138Z,100606.09
2022-09-18T23:46:50.797Z,100608.75
2022-09-18T23:49:53.305Z,100613.47
2022-09-18T23:52:55.773Z,100602.22
2022-09-18T23:56:03.060Z,100603.72
2022-09-18T23:59:08.029Z,100602.13
